sensor_id;sensor_type;location;lat;lon;timestamp;temperature;humidity
19920;DHT22;10122;50.074;19.920;2024-03-22T00:01:11;11.20;94.90
19920;DHT22;10122;50.074;19.920;2024-03-22T00:03:36;11.10;95.20
19920;DHT22;10122;50.074;19.920;2024-03-22T00:06:02;11.10;95.30
19920;DHT22;10122;50.074;19.920;2024-03-22T00:08:28;11.10;95.60
19920;DHT22;10122;50.074;19.920;2024-03-22T00:10:53;11.10;95.60
19920;DHT22;10122;50.074;19.920;2024-03-22T00:13:19;11.10;95.70
19920;DHT22;10122;50.074;19.920;2024-03-22T00:15:45;11.10;95.60
19920;DHT22;10122;50.074;19.920;2024-03-22T00:18:11;11.10;95.70
19920;DHT22;10122;50.074;19.920;2024-03-22T00:20:36;11.10;95.70
19920;DHT22;10122;50.074;19.920;2024-03-22T00:23:02;11.00;95.80
19920;DHT22;10122;50.074;19.920;2024-03-22T00:25:28;11.00;95.90
19920;DHT22;10122;50.074;19.920;2024-03-22T00:27:55;11.00;96.00
19920;DHT22;10122;50.074;19.920;2024-03-22T00:30:20;11.00;96.10
19920;DHT22;10122;50.074;19.920;2024-03-22T00:32:46;11.00;96.20
19920;DHT22;10122;50.074;19.920;2024-03-22T00:35:12;11.00;96.20
19920;DHT22;10122;50.074;19.920;2024-03-22T00:37:38;11.00;96.30
19920;DHT22;10122;50.074;19.920;2024-03-22T00:40:05;11.00;96.20
19920;DHT22;10122;50.074;19.920;2024-03-22T00:42:30;11.00;96.30
19920;DHT22;10122;50.074;19.920;2024-03-22T00:44:56;11.00;96.50
19920;DHT22;10122;50.074;19.920;2024-03-22T00:47:23;11.00;96.50
19920;DHT22;10122;50.074;19.920;2024-03-22T00:49:49;11.00;96.50
19920;DHT22;10122;50.074;19.920;2024-03-22T00:52:15;10.90;96.50
19920;DHT22;10122;50.074;19.920;2024-03-22T00:54:40;10.90;96.70
19920;DHT22;10122;50.074;19.920;2024-03-22T00:57:06;10.90;96.80
19920;DHT22;10122;50.074;19.920;2024-03-22T00:59:32;10.90;97.00
19920;DHT22;10122;50.074;19.920;2024-03-22T01:01:58;10.80;97.30
19920;DHT22;10122;50.074;19.920;2024-03-22T01:04:23;10.80;97.60
19920;DHT22;10122;50.074;19.920;2024-03-22T01:06:49;10.80;97.90
19920;DHT22;10122;50.074;19.920;2024-03-22T01:09:15;10.80;98.20
19920;DHT22;10122;50.074;19.920;2024-03-22T01:11:41;10.70;98.50
19920;DHT22;10122;50.074;19.920;2024-03-22T01:14:06;10.70;98.90
19920;DHT22;10122;50.074;19.920;2024-03-22T01:16:32;10.70;99.20
19920;DHT22;10122;50.074;19.920;2024-03-22T01:18:58;10.70;99.60
19920;DHT22;10122;50.074;19.920;2024-03-22T01:21:24;10.70;99.90
19920;DHT22;10122;50.074;19.920;2024-03-22T01:23:53;10.70;99.90
19920;DHT22;10122;50.074;19.920;2024-03-22T01:26:19;10.70;99.90
19920;DHT22;10122;50.074;19.920;2024-03-22T01:28:45;10.70;99.90
19920;DHT22;10122;50.074;19.920;2024-03-22T01:31:11;10.70;99.90
19920;DHT22;10122;50.074;19.920;2024-03-22T01:33:37;10.70;99.90
19920;DHT22;10122;50.074;19.920;2024-03-22T01:36:03;10.70;99.90
19920;DHT22;10122;50.074;19.920;2024-03-22T01:38:30;10.70;99.90
19920;DHT22;10122;50.074;19.920;2024-03-22T01:40:56;10.70;99.90
19920;DHT22;10122;50.074;19.920;2024-03-22T01:43:22;10.70;99.90
19920;DHT22;10122;50.074;19.920;2024-03-22T01:45:47;10.70;99.90
19920;DHT22;10122;50.074;19.920;2024-03-22T01:48:13;10.70;99.90
19920;DHT22;10122;50.074;19.920;2024-03-22T01:50:39;10.70;99.90
19920;DHT22;10122;50.074;19.920;2024-03-22T01:53:05;10.70;99.90
19920;DHT22;10122;50.074;19.920;2024-03-22T01:55:31;10.70;99.90
19920;DHT22;10122;50.074;19.920;2024-03-22T01:57:57;10.80;99.90
19920;DHT22;10122;50.074;19.920;2024-03-22T02:00:22;10.80;99.90
19920;DHT22;10122;50.074;19.920;2024-03-22T02:02:48;10.80;99.90
19920;DHT22;10122;50.074;19.920;2024-03-22T02:05:14;10.80;99.90
19920;DHT22;10122;50.074;19.920;2024-03-22T02:07:41;10.70;99.90
19920;DHT22;10122;50.074;19.920;2024-03-22T02:10:08;10.70;99.90
19920;DHT22;10122;50.074;19.920;2024-03-22T02:12:37;10.70;99.90
19920;DHT22;10122;50.074;19.920;2024-03-22T02:15:03;10.70;99.90
19920;DHT22;10122;50.074;19.920;2024-03-22T02:17:28;10.70;99.90
19920;DHT22;10122;50.074;19.920;2024-03-22T02:19:54;10.70;99.90
19920;DHT22;10122;50.074;19.920;2024-03-22T02:22:20;10.70;99.90
19920;DHT22;10122;50.074;19.920;2024-03-22T02:24:45;10.70;99.90
19920;DHT22;10122;50.074;19.920;2024-03-22T02:27:11;10.70;99.90
19920;DHT22;10122;50.074;19.920;2024-03-22T02:29:36;10.70;99.90
19920;DHT22;10122;50.074;19.920;2024-03-22T02:32:02;10.70;99.90
19920;DHT22;10122;50.074;19.920;2024-03-22T02:34:29;10.70;99.90
19920;DHT22;10122;50.074;19.920;2024-03-22T02:36:54;10.70;99.90
19920;DHT22;10122;50.074;19.920;2024-03-22T02:39:20;10.70;99.90
19920;DHT22;10122;50.074;19.920;2024-03-22T02:41:46;10.70;99.90
19920;DHT22;10122;50.074;19.920;2024-03-22T02:44:11;10.70;99.90
19920;DHT22;10122;50.074;19.920;2024-03-22T02:46:37;10.60;99.90
19920;DHT22;10122;50.074;19.920;2024-03-22T02:49:03;10.70;99.90
19920;DHT22;10122;50.074;19.920;2024-03-22T02:51:28;10.60;99.90
19920;DHT22;10122;50.074;19.920;2024-03-22T02:53:54;10.60;99.90
19920;DHT22;10122;50.074;19.920;2024-03-22T02:56:20;10.60;99.90
19920;DHT22;10122;50.074;19.920;2024-03-22T02:58:45;10.60;99.90
19920;DHT22;10122;50.074;19.920;2024-03-22T03:01:11;10.60;99.90
19920;DHT22;10122;50.074;19.920;2024-03-22T03:03:37;10.60;99.90
19920;DHT22;10122;50.074;19.920;2024-03-22T03:06:02;10.70;99.90
19920;DHT22;10122;50.074;19.920;2024-03-22T03:08:28;10.80;99.90
19920;DHT22;10122;50.074;19.920;2024-03-22T03:10:54;10.80;99.90
19920;DHT22;10122;50.074;19.920;2024-03-22T03:13:19;10.90;99.90
19920;DHT22;10122;50.074;19.920;2024-03-22T03:15:45;10.90;99.90
19920;DHT22;10122;50.074;19.920;2024-03-22T03:18:10;10.90;99.90
19920;DHT22;10122;50.074;19.920;2024-03-22T03:20:36;10.90;99.90
19920;DHT22;10122;50.074;19.920;2024-03-22T03:23:03;10.90;99.90
19920;DHT22;10122;50.074;19.920;2024-03-22T03:25:29;10.90;99.90
19920;DHT22;10122;50.074;19.920;2024-03-22T03:27:54;10.90;99.90
19920;DHT22;10122;50.074;19.920;2024-03-22T03:30:20;11.00;99.90
19920;DHT22;10122;50.074;19.920;2024-03-22T03:32:45;11.00;99.90
19920;DHT22;10122;50.074;19.920;2024-03-22T03:35:11;11.00;99.90
19920;DHT22;10122;50.074;19.920;2024-03-22T03:37:37;11.00;99.90
19920;DHT22;10122;50.074;19.920;2024-03-22T03:40:03;11.00;99.90
19920;DHT22;10122;50.074;19.920;2024-03-22T03:42:29;11.00;99.90
19920;DHT22;10122;50.074;19.920;2024-03-22T03:44:55;11.00;99.90
19920;DHT22;10122;50.074;19.920;2024-03-22T03:47:21;11.00;99.90
19920;DHT22;10122;50.074;19.920;2024-03-22T03:49:46;11.00;99.90
19920;DHT22;10122;50.074;19.920;2024-03-22T03:52:13;11.00;99.90
19920;DHT22;10122;50.074;19.920;2024-03-22T03:54:38;11.00;99.90
19920;DHT22;10122;50.074;19.920;2024-03-22T03:57:04;11.00;99.90
19920;DHT22;10122;50.074;19.920;2024-03-22T03:59:30;11.00;99.90
19920;DHT22;10122;50.074;19.920;2024-03-22T04:01:56;11.10;99.90
19920;DHT22;10122;50.074;19.920;2024-03-22T04:04:21;11.00;99.90
19920;DHT22;10122;50.074;19.920;2024-03-22T04:06:47;11.00;99.90
19920;DHT22;10122;50.074;19.920;2024-03-22T04:09:12;11.00;99.90
19920;DHT22;10122;50.074;19.920;2024-03-22T04:11:38;11.00;99.90
19920;DHT22;10122;50.074;19.920;2024-03-22T04:14:06;11.00;99.90
19920;DHT22;10122;50.074;19.920;2024-03-22T04:16:32;10.90;99.90
19920;DHT22;10122;50.074;19.920;2024-03-22T04:18:58;10.90;99.90
19920;DHT22;10122;50.074;19.920;2024-03-22T04:21:24;10.90;99.90
19920;DHT22;10122;50.074;19.920;2024-03-22T04:23:49;10.90;99.90
19920;DHT22;10122;50.074;19.920;2024-03-22T04:26:15;10.80;99.90
19920;DHT22;10122;50.074;19.920;2024-03-22T04:28:41;10.80;99.90
19920;DHT22;10122;50.074;19.920;2024-03-22T04:31:08;10.80;99.90
19920;DHT22;10122;50.074;19.920;2024-03-22T04:33:37;10.70;99.90
19920;DHT22;10122;50.074;19.920;2024-03-22T04:36:04;10.70;99.90
19920;DHT22;10122;50.074;19.920;2024-03-22T04:38:30;10.70;99.90
19920;DHT22;10122;50.074;19.920;2024-03-22T04:40:56;10.70;99.90
19920;DHT22;10122;50.074;19.920;2024-03-22T04:43:25;10.70;99.90
19920;DHT22;10122;50.074;19.920;2024-03-22T04:45:52;10.70;99.90
19920;DHT22;10122;50.074;19.920;2024-03-22T04:48:22;10.70;99.90
19920;DHT22;10122;50.074;19.920;2024-03-22T04:50:49;10.70;99.90
19920;DHT22;10122;50.074;19.920;2024-03-22T04:53:21;10.60;99.90
19920;DHT22;10122;50.074;19.920;2024-03-22T04:55:47;10.70;99.90
19920;DHT22;10122;50.074;19.920;2024-03-22T04:58:17;10.70;99.90
19920;DHT22;10122;50.074;19.920;2024-03-22T05:00:44;10.80;99.90
19920;DHT22;10122;50.074;19.920;2024-03-22T05:03:10;10.80;99.90
19920;DHT22;10122;50.074;19.920;2024-03-22T05:05:37;10.80;99.90
19920;DHT22;10122;50.074;19.920;2024-03-22T05:08:03;10.80;99.90
19920;DHT22;10122;50.074;19.920;2024-03-22T05:10:29;10.90;99.90
19920;DHT22;10122;50.074;19.920;2024-03-22T05:12:56;10.90;99.90
19920;DHT22;10122;50.074;19.920;2024-03-22T05:15:22;10.90;99.90
19920;DHT22;10122;50.074;19.920;2024-03-22T05:17:49;11.00;99.90
19920;DHT22;10122;50.074;19.920;2024-03-22T05:20:15;11.00;99.90
19920;DHT22;10122;50.074;19.920;2024-03-22T05:22:41;11.00;99.90
19920;DHT22;10122;50.074;19.920;2024-03-22T05:25:08;11.10;99.90
19920;DHT22;10122;50.074;19.920;2024-03-22T05:27:34;11.10;99.90
19920;DHT22;10122;50.074;19.920;2024-03-22T05:30:00;11.10;99.90
19920;DHT22;10122;50.074;19.920;2024-03-22T05:32:26;11.10;99.90
19920;DHT22;10122;50.074;19.920;2024-03-22T05:34:52;11.10;99.90
19920;DHT22;10122;50.074;19.920;2024-03-22T05:37:18;11.10;99.90
19920;DHT22;10122;50.074;19.920;2024-03-22T05:39:44;11.10;99.90
19920;DHT22;10122;50.074;19.920;2024-03-22T05:42:09;11.20;99.90
19920;DHT22;10122;50.074;19.920;2024-03-22T05:44:35;11.20;99.90
19920;DHT22;10122;50.074;19.920;2024-03-22T05:47:01;11.20;99.90
19920;DHT22;10122;50.074;19.920;2024-03-22T05:49:27;11.20;99.90
19920;DHT22;10122;50.074;19.920;2024-03-22T05:51:52;11.20;99.90
19920;DHT22;10122;50.074;19.920;2024-03-22T05:54:18;11.20;99.90
19920;DHT22;10122;50.074;19.920;2024-03-22T05:56:45;11.20;99.90
19920;DHT22;10122;50.074;19.920;2024-03-22T05:59:11;11.30;99.90
19920;DHT22;10122;50.074;19.920;2024-03-22T06:01:36;11.30;99.90
19920;DHT22;10122;50.074;19.920;2024-03-22T06:04:04;11.30;99.90
19920;DHT22;10122;50.074;19.920;2024-03-22T06:06:32;11.40;99.90
19920;DHT22;10122;50.074;19.920;2024-03-22T06:08:57;11.40;99.90
19920;DHT22;10122;50.074;19.920;2024-03-22T06:11:25;11.50;99.90
19920;DHT22;10122;50.074;19.920;2024-03-22T06:13:51;11.50;99.90
19920;DHT22;10122;50.074;19.920;2024-03-22T06:16:17;11.60;99.90
19920;DHT22;10122;50.074;19.920;2024-03-22T06:18:42;11.60;99.90
19920;DHT22;10122;50.074;19.920;2024-03-22T06:21:08;11.60;99.90
19920;DHT22;10122;50.074;19.920;2024-03-22T06:23:34;11.70;99.90
19920;DHT22;10122;50.074;19.920;2024-03-22T06:26:00;11.70;99.90
19920;DHT22;10122;50.074;19.920;2024-03-22T06:28:28;11.80;99.90
19920;DHT22;10122;50.074;19.920;2024-03-22T06:30:54;11.80;99.90
19920;DHT22;10122;50.074;19.920;2024-03-22T06:33:20;11.90;99.90
19920;DHT22;10122;50.074;19.920;2024-03-22T06:35:46;11.90;99.90
19920;DHT22;10122;50.074;19.920;2024-03-22T06:38:13;11.90;99.90
19920;DHT22;10122;50.074;19.920;2024-03-22T06:40:38;12.00;99.90
19920;DHT22;10122;50.074;19.920;2024-03-22T06:43:04;12.00;99.90
19920;DHT22;10122;50.074;19.920;2024-03-22T06:45:30;12.00;99.90
19920;DHT22;10122;50.074;19.920;2024-03-22T06:47:55;12.00;99.90
19920;DHT22;10122;50.074;19.920;2024-03-22T06:50:21;12.00;99.90
19920;DHT22;10122;50.074;19.920;2024-03-22T06:52:53;12.00;99.90
19920;DHT22;10122;50.074;19.920;2024-03-22T06:55:22;12.00;99.90
19920;DHT22;10122;50.074;19.920;2024-03-22T06:57:49;12.00;99.90
19920;DHT22;10122;50.074;19.920;2024-03-22T07:00:15;12.10;99.90
19920;DHT22;10122;50.074;19.920;2024-03-22T07:02:42;12.10;99.90
19920;DHT22;10122;50.074;19.920;2024-03-22T07:05:08;12.20;99.90
19920;DHT22;10122;50.074;19.920;2024-03-22T07:07:34;12.20;99.90
19920;DHT22;10122;50.074;19.920;2024-03-22T07:10:00;12.30;99.90
19920;DHT22;10122;50.074;19.920;2024-03-22T07:12:26;12.40;99.90
19920;DHT22;10122;50.074;19.920;2024-03-22T07:14:52;12.40;99.90
19920;DHT22;10122;50.074;19.920;2024-03-22T07:17:17;12.40;99.90
19920;DHT22;10122;50.074;19.920;2024-03-22T07:19:45;12.40;99.90
19920;DHT22;10122;50.074;19.920;2024-03-22T07:22:10;12.30;99.90
19920;DHT22;10122;50.074;19.920;2024-03-22T07:24:36;12.30;99.90
19920;DHT22;10122;50.074;19.920;2024-03-22T07:27:02;12.30;99.90
19920;DHT22;10122;50.074;19.920;2024-03-22T07:29:27;12.30;99.90
19920;DHT22;10122;50.074;19.920;2024-03-22T07:31:53;12.30;99.90
19920;DHT22;10122;50.074;19.920;2024-03-22T07:34:19;12.20;99.90
19920;DHT22;10122;50.074;19.920;2024-03-22T07:36:44;12.20;99.90
19920;DHT22;10122;50.074;19.920;2024-03-22T07:39:10;12.10;99.90
19920;DHT22;10122;50.074;19.920;2024-03-22T07:41:36;12.00;99.90
19920;DHT22;10122;50.074;19.920;2024-03-22T07:44:02;12.00;99.90
19920;DHT22;10122;50.074;19.920;2024-03-22T07:46:28;11.90;99.90
19920;DHT22;10122;50.074;19.920;2024-03-22T07:48:54;11.90;99.90
19920;DHT22;10122;50.074;19.920;2024-03-22T07:51:20;11.80;99.90
19920;DHT22;10122;50.074;19.920;2024-03-22T07:53:46;11.80;99.90
19920;DHT22;10122;50.074;19.920;2024-03-22T07:56:11;11.70;99.90
19920;DHT22;10122;50.074;19.920;2024-03-22T07:58:39;11.70;99.90
19920;DHT22;10122;50.074;19.920;2024-03-22T08:01:04;11.60;99.90
19920;DHT22;10122;50.074;19.920;2024-03-22T08:03:30;11.60;99.90
19920;DHT22;10122;50.074;19.920;2024-03-22T08:05:56;11.60;99.90
19920;DHT22;10122;50.074;19.920;2024-03-22T08:08:22;11.60;99.90
19920;DHT22;10122;50.074;19.920;2024-03-22T08:10:47;11.60;99.90
19920;DHT22;10122;50.074;19.920;2024-03-22T08:13:13;11.70;99.90
19920;DHT22;10122;50.074;19.920;2024-03-22T08:15:39;11.70;99.90
19920;DHT22;10122;50.074;19.920;2024-03-22T08:18:05;11.80;99.90
19920;DHT22;10122;50.074;19.920;2024-03-22T08:20:31;11.80;99.90
19920;DHT22;10122;50.074;19.920;2024-03-22T08:22:59;11.80;99.90
19920;DHT22;10122;50.074;19.920;2024-03-22T08:25:27;11.90;99.90
19920;DHT22;10122;50.074;19.920;2024-03-22T08:27:52;12.00;99.90
19920;DHT22;10122;50.074;19.920;2024-03-22T08:30:21;12.00;99.90
19920;DHT22;10122;50.074;19.920;2024-03-22T08:32:46;12.10;99.90
19920;DHT22;10122;50.074;19.920;2024-03-22T08:35:12;12.10;99.90
19920;DHT22;10122;50.074;19.920;2024-03-22T08:37:38;12.20;99.90
19920;DHT22;10122;50.074;19.920;2024-03-22T08:40:04;12.20;99.90
19920;DHT22;10122;50.074;19.920;2024-03-22T08:42:30;12.20;99.90
19920;DHT22;10122;50.074;19.920;2024-03-22T08:44:55;12.20;99.90
19920;DHT22;10122;50.074;19.920;2024-03-22T08:47:21;12.20;99.90
19920;DHT22;10122;50.074;19.920;2024-03-22T08:49:47;12.20;99.90
19920;DHT22;10122;50.074;19.920;2024-03-22T08:52:12;12.20;99.90
19920;DHT22;10122;50.074;19.920;2024-03-22T08:54:38;12.20;99.90
19920;DHT22;10122;50.074;19.920;2024-03-22T08:57:04;12.20;99.90
19920;DHT22;10122;50.074;19.920;2024-03-22T08:59:29;12.20;99.90
19920;DHT22;10122;50.074;19.920;2024-03-22T09:01:55;12.20;99.90
19920;DHT22;10122;50.074;19.920;2024-03-22T09:04:21;12.30;99.90
19920;DHT22;10122;50.074;19.920;2024-03-22T09:06:47;12.40;99.90
19920;DHT22;10122;50.074;19.920;2024-03-22T09:09:12;12.50;99.90
19920;DHT22;10122;50.074;19.920;2024-03-22T09:11:38;12.60;99.90
19920;DHT22;10122;50.074;19.920;2024-03-22T09:14:04;12.70;99.90
19920;DHT22;10122;50.074;19.920;2024-03-22T09:16:29;12.80;99.90
19920;DHT22;10122;50.074;19.920;2024-03-22T09:18:56;13.00;99.90
19920;DHT22;10122;50.074;19.920;2024-03-22T09:21:21;13.20;99.90
19920;DHT22;10122;50.074;19.920;2024-03-22T09:23:47;13.30;99.90
19920;DHT22;10122;50.074;19.920;2024-03-22T09:26:13;13.20;99.90
19920;DHT22;10122;50.074;19.920;2024-03-22T09:28:39;13.20;99.90
19920;DHT22;10122;50.074;19.920;2024-03-22T09:31:06;13.30;99.90
19920;DHT22;10122;50.074;19.920;2024-03-22T09:33:35;13.40;99.90
19920;DHT22;10122;50.074;19.920;2024-03-22T09:36:02;13.30;99.90
19920;DHT22;10122;50.074;19.920;2024-03-22T09:38:28;13.30;99.90
19920;DHT22;10122;50.074;19.920;2024-03-22T09:40:54;13.10;99.90
19920;DHT22;10122;50.074;19.920;2024-03-22T09:43:20;13.00;99.90
19920;DHT22;10122;50.074;19.920;2024-03-22T09:45:50;12.90;99.90
19920;DHT22;10122;50.074;19.920;2024-03-22T09:48:19;12.80;99.90
19920;DHT22;10122;50.074;19.920;2024-03-22T09:50:48;12.80;99.90
19920;DHT22;10122;50.074;19.920;2024-03-22T09:53:19;12.70;99.90
19920;DHT22;10122;50.074;19.920;2024-03-22T09:55:49;12.70;99.90
19920;DHT22;10122;50.074;19.920;2024-03-22T09:58:15;12.70;99.90
19920;DHT22;10122;50.074;19.920;2024-03-22T10:00:44;12.70;99.90
19920;DHT22;10122;50.074;19.920;2024-03-22T10:03:18;12.70;99.90
19920;DHT22;10122;50.074;19.920;2024-03-22T10:05:44;12.70;99.90
19920;DHT22;10122;50.074;19.920;2024-03-22T10:08:10;12.60;99.90
19920;DHT22;10122;50.074;19.920;2024-03-22T10:10:36;12.60;99.90
19920;DHT22;10122;50.074;19.920;2024-03-22T10:13:03;12.60;99.90
19920;DHT22;10122;50.074;19.920;2024-03-22T10:15:30;12.60;99.90
19920;DHT22;10122;50.074;19.920;2024-03-22T10:17:57;12.60;99.90
19920;DHT22;10122;50.074;19.920;2024-03-22T10:20:23;12.50;99.90
19920;DHT22;10122;50.074;19.920;2024-03-22T10:22:54;12.50;99.90
19920;DHT22;10122;50.074;19.920;2024-03-22T10:25:21;12.50;99.90
19920;DHT22;10122;50.074;19.920;2024-03-22T10:27:47;12.60;99.90
19920;DHT22;10122;50.074;19.920;2024-03-22T10:30:15;12.70;99.90
19920;DHT22;10122;50.074;19.920;2024-03-22T10:32:42;12.80;99.90
19920;DHT22;10122;50.074;19.920;2024-03-22T10:35:11;12.80;99.90
19920;DHT22;10122;50.074;19.920;2024-03-22T10:37:37;12.90;99.90
19920;DHT22;10122;50.074;19.920;2024-03-22T10:40:03;12.90;99.90
19920;DHT22;10122;50.074;19.920;2024-03-22T10:42:36;12.90;99.90
19920;DHT22;10122;50.074;19.920;2024-03-22T10:45:03;12.90;99.90
19920;DHT22;10122;50.074;19.920;2024-03-22T10:47:30;13.00;99.90
19920;DHT22;10122;50.074;19.920;2024-03-22T10:50:17;13.00;99.90
19920;DHT22;10122;50.074;19.920;2024-03-22T10:53:02;12.90;99.90
19920;DHT22;10122;50.074;19.920;2024-03-22T10:55:34;12.90;99.90
19920;DHT22;10122;50.074;19.920;2024-03-22T10:58:01;13.00;99.90
19920;DHT22;10122;50.074;19.920;2024-03-22T11:00:30;13.00;99.90
19920;DHT22;10122;50.074;19.920;2024-03-22T11:02:56;13.00;99.90
19920;DHT22;10122;50.074;19.920;2024-03-22T11:05:22;13.10;99.90
19920;DHT22;10122;50.074;19.920;2024-03-22T11:07:47;13.10;99.90
19920;DHT22;10122;50.074;19.920;2024-03-22T11:10:14;13.20;99.90
19920;DHT22;10122;50.074;19.920;2024-03-22T11:12:40;13.40;99.90
19920;DHT22;10122;50.074;19.920;2024-03-22T11:15:07;13.40;99.90
19920;DHT22;10122;50.074;19.920;2024-03-22T11:17:32;13.60;99.90
19920;DHT22;10122;50.074;19.920;2024-03-22T11:19:58;13.70;99.90
19920;DHT22;10122;50.074;19.920;2024-03-22T11:22:25;13.90;99.90
19920;DHT22;10122;50.074;19.920;2024-03-22T11:24:52;14.00;99.90
19920;DHT22;10122;50.074;19.920;2024-03-22T11:27:18;14.20;99.90
19920;DHT22;10122;50.074;19.920;2024-03-22T11:29:45;14.20;99.90
19920;DHT22;10122;50.074;19.920;2024-03-22T11:32:12;14.30;99.90
19920;DHT22;10122;50.074;19.920;2024-03-22T11:34:39;14.30;99.90
19920;DHT22;10122;50.074;19.920;2024-03-22T11:37:08;14.30;99.90
19920;DHT22;10122;50.074;19.920;2024-03-22T11:39:36;14.30;99.90
19920;DHT22;10122;50.074;19.920;2024-03-22T11:42:04;14.30;99.90
19920;DHT22;10122;50.074;19.920;2024-03-22T11:44:32;14.40;99.90
19920;DHT22;10122;50.074;19.920;2024-03-22T11:46:58;14.40;99.90
19920;DHT22;10122;50.074;19.920;2024-03-22T11:49:24;14.40;99.90
19920;DHT22;10122;50.074;19.920;2024-03-22T11:51:52;14.30;99.90
19920;DHT22;10122;50.074;19.920;2024-03-22T11:54:20;14.20;99.90
19920;DHT22;10122;50.074;19.920;2024-03-22T11:56:46;14.20;99.90
19920;DHT22;10122;50.074;19.920;2024-03-22T11:59:12;14.20;99.90
19920;DHT22;10122;50.074;19.920;2024-03-22T12:01:37;14.20;99.90
19920;DHT22;10122;50.074;19.920;2024-03-22T12:04:04;14.20;99.90
19920;DHT22;10122;50.074;19.920;2024-03-22T12:06:30;14.30;99.90
19920;DHT22;10122;50.074;19.920;2024-03-22T12:08:55;14.40;99.90
19920;DHT22;10122;50.074;19.920;2024-03-22T12:11:21;14.40;99.90
19920;DHT22;10122;50.074;19.920;2024-03-22T12:13:47;14.50;99.90
19920;DHT22;10122;50.074;19.920;2024-03-22T12:16:12;14.40;99.90
19920;DHT22;10122;50.074;19.920;2024-03-22T12:18:38;14.40;99.90
19920;DHT22;10122;50.074;19.920;2024-03-22T12:21:03;14.30;99.90
19920;DHT22;10122;50.074;19.920;2024-03-22T12:23:29;14.30;99.90
19920;DHT22;10122;50.074;19.920;2024-03-22T12:25:55;14.20;99.90
19920;DHT22;10122;50.074;19.920;2024-03-22T12:28:21;14.20;99.90
19920;DHT22;10122;50.074;19.920;2024-03-22T12:30:48;14.20;99.90
19920;DHT22;10122;50.074;19.920;2024-03-22T12:33:13;14.30;99.90
19920;DHT22;10122;50.074;19.920;2024-03-22T12:35:42;14.30;99.90
19920;DHT22;10122;50.074;19.920;2024-03-22T12:38:08;14.30;99.90
19920;DHT22;10122;50.074;19.920;2024-03-22T12:40:36;14.20;99.90
19920;DHT22;10122;50.074;19.920;2024-03-22T12:43:03;14.20;99.90
19920;DHT22;10122;50.074;19.920;2024-03-22T12:45:29;14.30;99.90
19920;DHT22;10122;50.074;19.920;2024-03-22T12:47:54;14.30;99.90
19920;DHT22;10122;50.074;19.920;2024-03-22T12:50:21;14.30;99.90
19920;DHT22;10122;50.074;19.920;2024-03-22T12:52:46;14.30;99.90
19920;DHT22;10122;50.074;19.920;2024-03-22T12:55:12;14.30;99.90
19920;DHT22;10122;50.074;19.920;2024-03-22T12:57:38;14.30;99.90
19920;DHT22;10122;50.074;19.920;2024-03-22T13:00:06;14.40;99.90
19920;DHT22;10122;50.074;19.920;2024-03-22T13:02:41;14.40;99.90
19920;DHT22;10122;50.074;19.920;2024-03-22T13:05:07;14.40;99.90
19920;DHT22;10122;50.074;19.920;2024-03-22T13:07:33;14.40;99.90
19920;DHT22;10122;50.074;19.920;2024-03-22T13:09:59;14.40;99.90
19920;DHT22;10122;50.074;19.920;2024-03-22T13:12:26;14.30;99.90
19920;DHT22;10122;50.074;19.920;2024-03-22T13:14:52;14.40;99.90
19920;DHT22;10122;50.074;19.920;2024-03-22T13:17:18;14.40;99.90
19920;DHT22;10122;50.074;19.920;2024-03-22T13:19:44;14.50;99.90
19920;DHT22;10122;50.074;19.920;2024-03-22T13:22:09;14.50;99.90
19920;DHT22;10122;50.074;19.920;2024-03-22T13:24:35;14.40;99.90
19920;DHT22;10122;50.074;19.920;2024-03-22T13:27:01;14.30;99.90
19920;DHT22;10122;50.074;19.920;2024-03-22T13:29:28;14.30;99.90
19920;DHT22;10122;50.074;19.920;2024-03-22T13:31:53;14.20;99.90
19920;DHT22;10122;50.074;19.920;2024-03-22T13:37:04;14.60;99.90
19920;DHT22;10122;50.074;19.920;2024-03-22T13:39:30;15.00;99.90
19920;DHT22;10122;50.074;19.920;2024-03-22T13:41:56;15.40;99.90
19920;DHT22;10122;50.074;19.920;2024-03-22T13:44:22;15.40;99.90
19920;DHT22;10122;50.074;19.920;2024-03-22T13:46:50;15.20;99.90
19920;DHT22;10122;50.074;19.920;2024-03-22T13:49:17;15.20;99.90
19920;DHT22;10122;50.074;19.920;2024-03-22T13:51:44;15.00;99.90
19920;DHT22;10122;50.074;19.920;2024-03-22T13:54:11;14.80;99.90
19920;DHT22;10122;50.074;19.920;2024-03-22T13:56:37;14.70;99.90
19920;DHT22;10122;50.074;19.920;2024-03-22T13:59:04;14.80;99.90
19920;DHT22;10122;50.074;19.920;2024-03-22T14:01:36;14.80;99.90
19920;DHT22;10122;50.074;19.920;2024-03-22T14:04:05;14.70;99.90
19920;DHT22;10122;50.074;19.920;2024-03-22T14:06:31;14.60;99.90
19920;DHT22;10122;50.074;19.920;2024-03-22T14:08:58;14.60;99.90
19920;DHT22;10122;50.074;19.920;2024-03-22T14:11:27;14.50;99.90
19920;DHT22;10122;50.074;19.920;2024-03-22T14:13:53;14.50;99.90
19920;DHT22;10122;50.074;19.920;2024-03-22T14:16:19;14.40;99.90
19920;DHT22;10122;50.074;19.920;2024-03-22T14:18:44;14.30;99.90
19920;DHT22;10122;50.074;19.920;2024-03-22T14:21:10;14.10;99.90
19920;DHT22;10122;50.074;19.920;2024-03-22T14:23:39;14.00;99.90
19920;DHT22;10122;50.074;19.920;2024-03-22T14:26:05;13.90;99.90
19920;DHT22;10122;50.074;19.920;2024-03-22T14:28:31;13.90;99.90
19920;DHT22;10122;50.074;19.920;2024-03-22T14:30:56;13.90;99.90
19920;DHT22;10122;50.074;19.920;2024-03-22T14:33:22;13.80;99.90
19920;DHT22;10122;50.074;19.920;2024-03-22T14:35:47;13.80;99.90
19920;DHT22;10122;50.074;19.920;2024-03-22T14:38:14;13.80;99.90
19920;DHT22;10122;50.074;19.920;2024-03-22T14:40:39;13.70;99.90
19920;DHT22;10122;50.074;19.920;2024-03-22T14:43:05;13.70;99.90
19920;DHT22;10122;50.074;19.920;2024-03-22T14:45:31;13.70;99.90
19920;DHT22;10122;50.074;19.920;2024-03-22T14:47:57;13.70;99.90
19920;DHT22;10122;50.074;19.920;2024-03-22T14:50:23;13.70;99.90
19920;DHT22;10122;50.074;19.920;2024-03-22T14:52:49;13.80;99.90
19920;DHT22;10122;50.074;19.920;2024-03-22T14:55:15;13.80;99.90
19920;DHT22;10122;50.074;19.920;2024-03-22T14:57:40;13.80;99.90
19920;DHT22;10122;50.074;19.920;2024-03-22T15:00:06;13.70;99.90
19920;DHT22;10122;50.074;19.920;2024-03-22T15:02:36;13.70;99.90
19920;DHT22;10122;50.074;19.920;2024-03-22T15:05:02;13.70;99.90
19920;DHT22;10122;50.074;19.920;2024-03-22T15:07:30;13.70;99.90
19920;DHT22;10122;50.074;19.920;2024-03-22T15:09:56;13.70;99.90
19920;DHT22;10122;50.074;19.920;2024-03-22T15:12:21;13.70;99.90